createdAt,value
2022-10-20T00:01:12.480Z,2.50
2022-10-20T00:03:40.444Z,2.03
2022-10-20T00:06:10.429Z,2.07
2022-10-20T00:08:38.804Z,2.10
2022-10-20T00:11:09.458Z,2.03
2022-10-20T00:13:38.058Z,2.30
2022-10-20T00:16:06.753Z,2.27
2022-10-20T00:18:34.977Z,2.33
2022-10-20T00:21:07.116Z,2.13
2022-10-20T00:23:35.257Z,1.80
2022-10-20T00:26:04.270Z,2.30
2022-10-20T00:28:33.717Z,2.10
2022-10-20T00:31:01.621Z,2.10
2022-10-20T00:33:29.527Z,2.43
2022-10-20T00:36:00.245Z,2.70
2022-10-20T00:38:28.467Z,2.30
2022-10-20T00:40:56.318Z,2.20
2022-10-20T00:43:24.282Z,2.40
2022-10-20T00:45:57.497Z,2.50
2022-10-20T00:48:30.265Z,3.63
2022-10-20T00:50:58.814Z,2.57
2022-10-20T00:53:30.199Z,2.50
2022-10-20T00:55:59.616Z,2.80
2022-10-20T00:58:28.859Z,2.63
2022-10-20T01:00:59.972Z,2.47
2022-10-20T01:03:32.696Z,2.90
2022-10-20T01:06:00.595Z,3.13
2022-10-20T01:08:28.493Z,3.20
2022-10-20T01:11:07.609Z,3.53
2022-10-20T01:13:45.886Z,3.37
2022-10-20T01:16:24.128Z,3.67
2022-10-20T01:19:02.025Z,3.63
2022-10-20T01:21:50.958Z,4.30
2022-10-20T01:24:44.576Z,3.23
2022-10-20T01:27:29.028Z,3.30
2022-10-20T01:30:04.538Z,3.30
2022-10-20T01:32:52.356Z,3.40
2022-10-20T01:35:29.032Z,3.53
2022-10-20T01:38:05.036Z,3.63
2022-10-20T01:40:37.697Z,3.50
2022-10-20T01:43:10.619Z,3.73
2022-10-20T01:45:41.121Z,3.40
2022-10-20T01:48:11.770Z,3.47
2022-10-20T01:50:41.191Z,3.57
2022-10-20T01:53:09.217Z,3.70
2022-10-20T01:55:39.002Z,3.20
2022-10-20T01:58:18.568Z,3.90
2022-10-20T02:00:47.673Z,4.53
2022-10-20T02:03:27.608Z,4.10
2022-10-20T02:06:08.651Z,3.63
2022-10-20T02:08:44.022Z,4.00
2022-10-20T02:11:15.964Z,3.80
2022-10-20T02:13:46.138Z,3.80
2022-10-20T02:16:17.656Z,3.80
2022-10-20T02:18:46.935Z,4.40
2022-10-20T02:21:15.136Z,3.80
2022-10-20T02:23:47.430Z,3.63
2022-10-20T02:26:18.099Z,3.93
2022-10-20T02:28:51.462Z,3.83
2022-10-20T02:31:20.516Z,3.40
2022-10-20T02:33:49.315Z,4.37
2022-10-20T02:36:20.500Z,4.00
2022-10-20T02:38:48.589Z,3.73
2022-10-20T02:41:16.278Z,3.90
2022-10-20T02:43:44.012Z,3.70
2022-10-20T02:46:13.460Z,3.73
2022-10-20T02:48:41.590Z,4.10
2022-10-20T02:51:09.520Z,4.37
2022-10-20T02:53:39.372Z,4.03
2022-10-20T02:56:07.760Z,3.80
2022-10-20T02:58:35.887Z,4.20
2022-10-20T03:01:04.574Z,4.20
2022-10-20T03:03:34.257Z,3.80
2022-10-20T03:06:08.925Z,4.13
2022-10-20T03:08:36.694Z,4.10
2022-10-20T03:11:04.801Z,4.00
2022-10-20T03:13:33.446Z,3.73
2022-10-20T03:16:01.972Z,3.73
2022-10-20T03:18:29.870Z,4.30
2022-10-20T03:21:00.224Z,3.67
2022-10-20T03:23:28.247Z,4.03
2022-10-20T03:26:02.543Z,4.37
2022-10-20T03:28:30.416Z,3.90
2022-10-20T03:30:58.788Z,4.00
2022-10-20T03:33:27.550Z,4.20
2022-10-20T03:35:55.512Z,3.77
2022-10-20T03:38:24.969Z,3.80
2022-10-20T03:40:53.076Z,5.23
2022-10-20T03:43:20.919Z,4.53
2022-10-20T03:45:48.799Z,4.30
2022-10-20T03:48:17.338Z,4.10
2022-10-20T03:50:45.690Z,3.50
2022-10-20T03:53:16.925Z,3.77
2022-10-20T03:55:47.013Z,3.80
2022-10-20T03:58:14.892Z,3.50
2022-10-20T04:00:42.831Z,3.90
2022-10-20T04:03:10.624Z,3.20
2022-10-20T04:05:38.715Z,3.50
2022-10-20T04:08:06.999Z,3.10
2022-10-20T04:10:35.093Z,3.40
2022-10-20T04:13:05.714Z,3.50
2022-10-20T04:15:34.085Z,3.57
2022-10-20T04:18:02.143Z,3.37
2022-10-20T04:20:31.298Z,3.27
2022-10-20T04:22:59.379Z,3.60
2022-10-20T04:25:27.817Z,3.60
2022-10-20T04:27:55.689Z,3.37
2022-10-20T04:30:25.078Z,3.20
2022-10-20T04:32:52.987Z,3.53
2022-10-20T04:35:20.680Z,3.57
2022-10-20T04:37:48.579Z,3.23
2022-10-20T04:40:16.403Z,3.37
2022-10-20T04:42:44.524Z,3.50
2022-10-20T04:45:12.712Z,3.53
2022-10-20T04:47:41.883Z,3.70
2022-10-20T04:50:10.986Z,3.60
2022-10-20T04:52:39.235Z,3.50
2022-10-20T04:55:07.731Z,3.30
2022-10-20T04:57:35.918Z,3.70
2022-10-20T05:00:05.386Z,3.67
2022-10-20T05:02:33.539Z,3.60
2022-10-20T05:05:04.969Z,3.73
2022-10-20T05:07:33.217Z,3.37
2022-10-20T05:10:01.266Z,3.87
2022-10-20T05:12:30.501Z,3.23
2022-10-20T05:14:58.378Z,3.40
2022-10-20T05:17:26.544Z,3.70
2022-10-20T05:19:54.591Z,3.60
2022-10-20T05:22:23.929Z,3.43
2022-10-20T05:24:52.025Z,3.67
2022-10-20T05:27:20.046Z,3.80
2022-10-20T05:29:48.362Z,3.60
2022-10-20T05:32:16.226Z,3.67
2022-10-20T05:34:44.576Z,3.83
2022-10-20T05:37:12.496Z,3.67
2022-10-20T05:39:43.424Z,3.90
2022-10-20T05:42:11.474Z,3.80
2022-10-20T05:44:39.561Z,3.73
2022-10-20T05:47:07.688Z,3.37
2022-10-20T05:49:35.415Z,4.07
2022-10-20T05:52:03.459Z,3.47
2022-10-20T05:54:32.535Z,4.07
2022-10-20T05:57:02.360Z,3.97
2022-10-20T05:59:30.169Z,3.80
2022-10-20T06:01:58.011Z,3.63
2022-10-20T06:04:28.213Z,3.50
2022-10-20T06:06:57.081Z,3.40
2022-10-20T06:09:25.549Z,3.70
2022-10-20T06:11:54.093Z,3.60
2022-10-20T06:14:23.543Z,3.80
2022-10-20T06:16:53.853Z,3.80
2022-10-20T06:19:23.390Z,3.70
2022-10-20T06:21:54.326Z,3.67
2022-10-20T06:24:23.243Z,3.43
2022-10-20T06:26:51.946Z,3.40
2022-10-20T06:29:20.381Z,3.47
2022-10-20T06:31:53.167Z,3.57
2022-10-20T06:34:24.095Z,3.53
2022-10-20T06:36:52.718Z,3.60
2022-10-20T06:39:22.181Z,3.60
2022-10-20T06:41:51.004Z,3.60
2022-10-20T06:44:21.232Z,3.00
2022-10-20T06:46:52.580Z,3.50
2022-10-20T06:49:20.815Z,3.60
2022-10-20T06:51:48.956Z,3.60
2022-10-20T06:54:16.812Z,3.20
2022-10-20T06:56:44.673Z,3.40
2022-10-20T06:59:13.236Z,3.67
2022-10-20T07:01:42.398Z,3.60
2022-10-20T07:04:16.873Z,3.50
2022-10-20T07:06:47.825Z,3.50
2022-10-20T07:09:18.807Z,3.50
2022-10-20T07:11:47.197Z,4.50
2022-10-20T07:14:15.403Z,3.60
2022-10-20T07:16:43.311Z,3.30
2022-10-20T07:19:12.814Z,3.50
2022-10-20T07:21:45.296Z,3.90
2022-10-20T07:24:14.473Z,3.30
2022-10-20T07:26:43.926Z,3.70
2022-10-20T07:29:13.134Z,3.30
2022-10-20T07:31:43.497Z,3.50
2022-10-20T07:34:24.926Z,3.50
2022-10-20T07:36:54.164Z,3.70
2022-10-20T07:39:22.253Z,3.57
2022-10-20T07:41:50.438Z,3.33
2022-10-20T07:44:19.117Z,3.50
2022-10-20T07:46:47.220Z,3.90
2022-10-20T07:49:42.877Z,3.90
2022-10-20T07:52:05.951Z,4.13
2022-10-20T07:54:34.045Z,4.30
2022-10-20T07:57:01.891Z,4.23
2022-10-20T07:59:30.285Z,4.40
2022-10-20T08:01:59.898Z,4.00
2022-10-20T08:04:31.838Z,3.67
2022-10-20T08:07:01.553Z,4.00
2022-10-20T08:09:29.531Z,4.20
2022-10-20T08:11:58.100Z,4.10
2022-10-20T08:14:27.688Z,4.23
2022-10-20T08:16:56.575Z,3.90
2022-10-20T08:19:24.945Z,3.77
2022-10-20T08:21:55.427Z,4.47
2022-10-20T08:24:23.439Z,3.77
2022-10-20T08:26:51.247Z,3.80
2022-10-20T08:29:19.170Z,4.10
2022-10-20T08:31:47.020Z,3.90
2022-10-20T08:34:14.938Z,4.50
2022-10-20T08:36:43.278Z,3.77
2022-10-20T08:39:14.246Z,4.20
2022-10-20T08:42:06.822Z,4.27
2022-10-20T08:44:36.610Z,3.93
2022-10-20T08:47:07.076Z,3.93
2022-10-20T08:49:36.747Z,3.60
2022-10-20T08:52:04.988Z,3.83
2022-10-20T08:54:35.563Z,3.80
2022-10-20T08:57:13.142Z,4.00
2022-10-20T08:59:41.069Z,4.10
2022-10-20T09:02:16.538Z,3.97
2022-10-20T09:04:49.693Z,3.80
2022-10-20T09:07:25.464Z,3.77
2022-10-20T09:10:04.903Z,3.60
2022-10-20T09:12:33.875Z,3.77
2022-10-20T09:15:02.350Z,3.83
2022-10-20T09:17:31.272Z,3.70
2022-10-20T09:20:01.604Z,3.90
2022-10-20T09:22:35.703Z,3.53
2022-10-20T09:25:06.437Z,3.87
2022-10-20T09:27:37.452Z,3.33
2022-10-20T09:30:22.108Z,3.70
2022-10-20T09:32:50.751Z,3.40
2022-10-20T09:35:27.679Z,3.27
2022-10-20T09:38:01.235Z,3.80
2022-10-20T09:40:31.277Z,3.70
2022-10-20T09:43:03.670Z,3.27
2022-10-20T09:45:33.565Z,3.40
2022-10-20T09:48:06.735Z,3.57
2022-10-20T09:50:38.273Z,3.43
2022-10-20T09:53:08.650Z,3.27
2022-10-20T09:55:46.325Z,3.83
2022-10-20T09:58:22.229Z,3.17
2022-10-20T10:00:58.768Z,3.50
2022-10-20T10:03:27.548Z,3.40
2022-10-20T10:05:57.738Z,3.70
2022-10-20T10:08:27.554Z,3.50
2022-10-20T10:11:03.329Z,3.47
2022-10-20T10:13:33.211Z,3.43
2022-10-20T10:16:04.587Z,3.30
2022-10-20T10:18:32.598Z,3.57
2022-10-20T10:21:06.088Z,3.20
2022-10-20T10:23:36.649Z,2.93
2022-10-20T10:26:46.076Z,3.43
2022-10-20T10:29:20.005Z,3.33
2022-10-20T10:31:57.443Z,3.20
2022-10-20T10:34:44.938Z,3.40
2022-10-20T10:37:15.619Z,3.47
2022-10-20T10:39:43.875Z,3.33
2022-10-20T10:42:39.671Z,3.03
2022-10-20T10:45:20.153Z,3.30
2022-10-20T10:48:07.342Z,3.87
2022-10-20T10:50:40.192Z,3.10
2022-10-20T10:53:20.782Z,3.50
2022-10-20T10:55:54.520Z,3.30
2022-10-20T10:58:36.350Z,3.20
2022-10-20T11:01:13.546Z,3.07
2022-10-20T11:03:58.135Z,3.40
2022-10-20T11:06:35.276Z,3.17
2022-10-20T11:09:26.744Z,3.03
2022-10-20T11:12:25.463Z,3.17
2022-10-20T11:15:08.836Z,3.40
2022-10-20T11:17:48.454Z,3.53
2022-10-20T11:20:25.883Z,4.30
2022-10-20T11:23:21.824Z,3.53
2022-10-20T11:25:53.959Z,3.00
2022-10-20T11:28:32.495Z,3.30
2022-10-20T11:31:02.211Z,3.57
2022-10-20T11:33:39.366Z,3.60
2022-10-20T11:36:16.509Z,4.10
2022-10-20T11:38:50.711Z,3.27
2022-10-20T11:41:23.929Z,3.40
2022-10-20T11:43:58.901Z,3.10
2022-10-20T11:46:33.758Z,3.33
2022-10-20T11:49:04.154Z,3.50
2022-10-20T11:52:01.850Z,3.70
2022-10-20T11:54:42.888Z,3.70
2022-10-20T11:57:21.567Z,3.60
2022-10-20T12:00:03.729Z,3.53
2022-10-20T12:03:11.454Z,3.13
2022-10-20T12:05:59.623Z,3.60
2022-10-20T12:08:38.744Z,3.20
2022-10-20T12:11:13.334Z,3.37
2022-10-20T12:13:49.322Z,3.67
2022-10-20T12:16:50.254Z,3.63
2022-10-20T12:19:26.883Z,3.70
2022-10-20T12:21:55.936Z,3.50
2022-10-20T12:24:39.969Z,3.40
2022-10-20T12:27:20.294Z,3.60
2022-10-20T12:30:06.762Z,3.77
2022-10-20T12:32:52.180Z,3.23
2022-10-20T12:36:02.994Z,3.83
2022-10-20T12:38:31.830Z,3.43
2022-10-20T12:41:03.170Z,3.50
2022-10-20T12:43:49.048Z,3.67
2022-10-20T12:46:21.831Z,3.50
2022-10-20T12:48:57.446Z,3.17
2022-10-20T12:51:36.177Z,3.90
2022-10-20T12:54:07.724Z,3.77
2022-10-20T12:56:40.976Z,3.13
2022-10-20T12:59:22.466Z,3.47
2022-10-20T13:02:20.900Z,3.73
2022-10-20T13:04:56.418Z,3.50
2022-10-20T13:08:04.897Z,3.37
2022-10-20T13:10:34.950Z,3.70
2022-10-20T13:13:40.627Z,3.80
2022-10-20T13:16:17.657Z,3.37
2022-10-20T13:18:50.760Z,4.27
2022-10-20T13:21:30.364Z,3.90
2022-10-20T13:24:16.189Z,3.33
2022-10-20T13:26:50.732Z,3.70
2022-10-20T13:29:26.358Z,3.70
2022-10-20T13:34:46.663Z,4.10
2022-10-20T13:37:37.304Z,3.83
2022-10-20T13:40:21.291Z,7.40
2022-10-20T13:43:06.658Z,5.20
2022-10-20T13:45:52.366Z,4.20
2022-10-20T13:48:34.308Z,4.20
2022-10-20T13:51:05.219Z,4.30
2022-10-20T13:53:38.162Z,4.50
2022-10-20T13:56:19.939Z,4.30
2022-10-20T13:59:03.177Z,4.20
2022-10-20T14:01:37.372Z,4.50
2022-10-20T14:04:25.141Z,4.63
2022-10-20T14:06:55.212Z,4.30
2022-10-20T14:09:25.834Z,4.43
2022-10-20T14:12:01.287Z,3.87
2022-10-20T14:14:31.162Z,4.00
2022-10-20T14:17:01.871Z,4.50
2022-10-20T14:19:30.881Z,4.00
2022-10-20T14:22:00.634Z,4.17
2022-10-20T14:24:33.198Z,4.07
2022-10-20T14:27:05.990Z,3.90
2022-10-20T14:29:37.936Z,4.50
2022-10-20T14:32:06.733Z,5.43
2022-10-20T14:34:36.490Z,4.77
2022-10-20T14:37:06.591Z,4.70
2022-10-20T14:39:37.494Z,4.80
2022-10-20T14:42:24.305Z,5.40
2022-10-20T14:44:53.282Z,5.23
2022-10-20T14:47:22.084Z,5.53
2022-10-20T14:49:52.952Z,4.57
2022-10-20T14:52:24.155Z,5.10
2022-10-20T14:54:52.602Z,4.83
2022-10-20T14:57:46.116Z,5.23
2022-10-20T15:00:33.328Z,4.93
2022-10-20T15:03:06.672Z,5.17
2022-10-20T15:05:42.459Z,5.03
2022-10-20T15:08:29.149Z,4.90
2022-10-20T15:10:57.420Z,6.13
2022-10-20T15:13:29.089Z,6.17
2022-10-20T15:15:58.569Z,5.73
2022-10-20T15:18:26.739Z,5.30
2022-10-20T15:20:55.967Z,5.63
2022-10-20T15:23:26.558Z,5.50
2022-10-20T15:25:59.748Z,5.50
2022-10-20T15:28:35.662Z,5.83
2022-10-20T15:31:06.934Z,6.20
2022-10-20T15:33:34.906Z,6.20
2022-10-20T15:36:02.693Z,5.70
2022-10-20T15:38:31.297Z,5.90
2022-10-20T15:43:30.840Z,5.87
2022-10-20T15:45:58.857Z,5.47
2022-10-20T15:48:27.134Z,5.27
2022-10-20T15:50:55.485Z,6.40
2022-10-20T15:53:23.602Z,6.50
2022-10-20T15:55:52.147Z,5.80
2022-10-20T15:58:20.979Z,6.30
2022-10-20T16:00:50.646Z,6.20
2022-10-20T16:03:19.773Z,5.97
2022-10-20T16:05:48.262Z,6.40
2022-10-20T16:08:16.463Z,6.43
2022-10-20T16:10:44.281Z,6.40
2022-10-20T16:13:12.572Z,6.43
2022-10-20T16:15:40.437Z,7.40
2022-10-20T16:18:10.149Z,6.03
2022-10-20T16:20:38.584Z,6.23
2022-10-20T16:23:06.661Z,7.17
2022-10-20T16:25:34.873Z,6.70
2022-10-20T16:28:02.984Z,6.40
2022-10-20T16:30:31.020Z,5.87
2022-10-20T16:32:59.044Z,6.67
2022-10-20T16:35:28.883Z,6.27
2022-10-20T16:37:56.849Z,6.37
2022-10-20T16:40:24.657Z,6.80
2022-10-20T16:42:52.732Z,6.47
2022-10-20T16:45:20.649Z,6.80
2022-10-20T16:47:48.540Z,6.60
2022-10-20T16:50:16.588Z,6.60
2022-10-20T16:52:46.169Z,7.20
2022-10-20T16:55:14.117Z,7.10
2022-10-20T16:57:42.071Z,7.77
2022-10-20T17:00:10.810Z,7.23
2022-10-20T17:02:40.667Z,6.80
2022-10-20T17:05:09.701Z,6.50
2022-10-20T17:07:38.873Z,6.57
2022-10-20T17:10:10.608Z,6.87
2022-10-20T17:12:38.449Z,6.80
2022-10-20T17:15:06.875Z,7.00
2022-10-20T17:17:35.645Z,7.13
2022-10-20T17:20:03.817Z,6.50
2022-10-20T17:22:32.669Z,7.30
2022-10-20T17:25:00.697Z,7.17
2022-10-20T17:27:30.018Z,6.90
2022-10-20T17:29:58.010Z,9.50
2022-10-20T17:32:25.848Z,9.87
2022-10-20T17:34:53.775Z,8.67
2022-10-20T17:37:21.664Z,7.27
2022-10-20T17:39:51.061Z,7.17
2022-10-20T17:42:18.935Z,7.03
2022-10-20T17:44:48.579Z,6.40
2022-10-20T17:47:16.742Z,6.53
2022-10-20T17:49:44.512Z,7.87
2022-10-20T17:52:12.455Z,6.20
2022-10-20T17:54:40.283Z,6.73
2022-10-20T17:57:08.404Z,6.80
2022-10-20T17:59:47.318Z,6.43
2022-10-20T18:02:24.920Z,5.87
2022-10-20T18:04:52.764Z,6.10
2022-10-20T18:07:20.849Z,5.80
2022-10-20T18:09:48.653Z,6.70
2022-10-20T18:12:16.883Z,6.70
2022-10-20T18:14:44.677Z,6.30
2022-10-20T18:17:12.876Z,6.40
2022-10-20T18:19:43.618Z,6.40
2022-10-20T18:22:11.659Z,6.30
2022-10-20T18:24:39.522Z,6.10
2022-10-20T18:27:07.594Z,6.47
2022-10-20T18:29:37.067Z,6.27
2022-10-20T18:32:05.440Z,6.70
2022-10-20T18:34:33.562Z,6.57
2022-10-20T18:37:03.693Z,6.53
2022-10-20T18:39:32.621Z,7.30
2022-10-20T18:42:00.554Z,7.17
2022-10-20T18:46:58.695Z,7.73
2022-10-20T18:49:26.664Z,6.80
2022-10-20T18:51:54.582Z,6.67
2022-10-20T18:54:24.267Z,7.37
2022-10-20T18:56:52.311Z,6.63
2022-10-20T18:59:20.178Z,7.70
2022-10-20T19:01:48.418Z,6.73
2022-10-20T19:04:16.792Z,6.67
2022-10-20T19:06:46.462Z,6.80
2022-10-20T19:09:16.298Z,6.57
2022-10-20T19:11:47.381Z,6.83
2022-10-20T19:14:17.320Z,6.97
2022-10-20T19:16:47.813Z,7.33
2022-10-20T19:19:16.146Z,7.33
2022-10-20T19:21:44.453Z,6.87
2022-10-20T19:24:15.971Z,7.13
2022-10-20T19:26:56.974Z,6.40
2022-10-20T19:29:30.722Z,6.30
2022-10-20T19:32:01.086Z,6.77
2022-10-20T19:34:30.751Z,6.43
2022-10-20T19:36:59.391Z,6.63
2022-10-20T19:39:28.923Z,6.13
2022-10-20T19:42:00.981Z,6.00
2022-10-20T19:44:29.972Z,5.83
2022-10-20T19:46:58.851Z,6.27
2022-10-20T19:49:27.756Z,5.90
2022-10-20T19:51:55.964Z,6.00
2022-10-20T19:54:24.295Z,6.30
2022-10-20T19:56:52.208Z,6.77
2022-10-20T19:59:21.736Z,6.27
2022-10-20T20:01:50.074Z,6.40
2022-10-20T20:04:17.956Z,7.13
2022-10-20T20:06:46.772Z,6.33
2022-10-20T20:09:15.914Z,6.10
2022-10-20T20:11:44.694Z,5.97
2022-10-20T20:14:16.462Z,6.00
2022-10-20T20:16:47.205Z,6.70
2022-10-20T20:19:16.219Z,6.57
2022-10-20T20:21:44.154Z,6.23
2022-10-20T20:24:14.530Z,5.97
2022-10-20T20:26:44.414Z,6.63
2022-10-20T20:29:13.806Z,6.13
2022-10-20T20:31:42.213Z,6.10
2022-10-20T20:34:11.477Z,6.17
2022-10-20T20:36:40.521Z,5.73
2022-10-20T20:39:08.557Z,6.37
2022-10-20T20:41:36.508Z,6.50
2022-10-20T20:44:08.305Z,7.00
2022-10-20T20:46:37.402Z,7.33
2022-10-20T20:49:05.273Z,7.03
2022-10-20T20:51:34.699Z,6.63
2022-10-20T20:54:04.141Z,6.37
2022-10-20T20:56:32.465Z,6.57
2022-10-20T20:59:00.234Z,6.40
2022-10-20T21:01:31.315Z,7.07
2022-10-20T21:04:01.132Z,6.50
2022-10-20T21:06:33.855Z,6.80
2022-10-20T21:09:13.600Z,6.67
2022-10-20T21:11:42.924Z,7.27
2022-10-20T21:14:11.116Z,6.63
2022-10-20T21:16:39.341Z,6.83
2022-10-20T21:19:09.541Z,6.80
2022-10-20T21:21:39.424Z,6.30
2022-10-20T21:24:08.237Z,7.07
2022-10-20T21:26:38.158Z,6.37
2022-10-20T21:29:06.167Z,7.33
2022-10-20T21:31:34.140Z,7.30
2022-10-20T21:34:03.586Z,7.43
2022-10-20T21:36:34.954Z,6.67
2022-10-20T21:39:04.524Z,6.80
2022-10-20T21:41:34.561Z,7.53
2022-10-20T21:44:06.346Z,7.03
2022-10-20T21:46:36.540Z,7.30
2022-10-20T21:49:06.645Z,7.17
2022-10-20T21:51:36.284Z,7.27
2022-10-20T21:54:07.021Z,7.20
2022-10-20T21:56:36.488Z,6.67
2022-10-20T21:59:06.420Z,7.77
2022-10-20T22:01:35.571Z,7.73
2022-10-20T22:04:03.849Z,7.40
2022-10-20T22:06:31.622Z,7.30
2022-10-20T22:09:00.291Z,7.40
2022-10-20T22:11:30.537Z,7.63
2022-10-20T22:13:59.531Z,6.53
2022-10-20T22:16:30.969Z,7.20
2022-10-20T22:19:00.794Z,7.20
2022-10-20T22:21:29.796Z,6.30
2022-10-20T22:23:59.694Z,7.07
2022-10-20T22:26:28.856Z,6.77
2022-10-20T22:28:57.879Z,7.20
2022-10-20T22:31:26.170Z,7.33
2022-10-20T22:33:58.150Z,7.03
2022-10-20T22:36:26.959Z,7.30
2022-10-20T22:38:55.346Z,7.17
2022-10-20T22:41:23.451Z,7.83
2022-10-20T22:43:51.647Z,6.97
2022-10-20T22:46:21.809Z,7.20
2022-10-20T22:48:49.737Z,7.53
2022-10-20T22:51:19.482Z,7.60
2022-10-20T22:53:47.380Z,7.93
2022-10-20T22:56:16.946Z,7.53
2022-10-20T22:58:45.534Z,7.10
2022-10-20T23:01:16.171Z,6.80
2022-10-20T23:03:44.490Z,6.90
2022-10-20T23:06:14.611Z,6.93
2022-10-20T23:08:45.865Z,7.27
2022-10-20T23:11:15.197Z,6.90
2022-10-20T23:13:44.643Z,7.30
2022-10-20T23:16:13.507Z,7.17
2022-10-20T23:18:42.035Z,7.30
2022-10-20T23:21:15.944Z,7.10
2022-10-20T23:23:46.753Z,7.40
2022-10-20T23:26:15.223Z,6.73
2022-10-20T23:28:43.500Z,7.07
2022-10-20T23:31:12.739Z,7.40
2022-10-20T23:33:42.661Z,7.60
2022-10-20T23:36:13.418Z,8.30
2022-10-20T23:38:41.558Z,7.20
2022-10-20T23:41:11.933Z,7.10
2022-10-20T23:43:40.088Z,7.83
2022-10-20T23:46:10.064Z,6.77
2022-10-20T23:48:37.984Z,7.33
2022-10-20T23:51:06.783Z,7.60
2022-10-20T23:53:35.238Z,7.43
2022-10-20T23:56:02.948Z,8.20
2022-10-20T23:58:32.367Z,7.90
